< < Back
Terminal Aerodrome Forecast


Current Version              Previous Versions:   1  2  3  4  5  6  7  8  9  

Terminal Aerodrome Forecast

654
FTUS42 KCAE 300200 AAA
TAFCAE
TAF AMD
KCAE 300251Z 3003/3024 24005KT P6SM BKN100
     FM300500 25008KT P6SM OVC040
     FM301000 28010KT P6SM SCT100
     FM301400 32014G21KT P6SM SKC=

Latest METAR

485
SAUS80 KWBC 300700 RRA
MTRCAE
METAR KCAE 300656Z 21007KT 10SM BKN080 BKN150 11/01 A3003 RMK AO2 SLP167
T01110006


USA.gov is the U.S. government's official web portal to all federal, state and local government web resources and services.